Time;durP1;ratioP1;P1;durP2;ratioP2;P2;SDS_P1;SDS_P2;PMS_P1;PMS_P2;Temp;Humidity;BMP_temperature;BMP_pressure;BME280_temperature;BME280_humidity;BME280_pressure;Samples;Min_cycle;Max_cycle;Signal;HPM_P1;HPM_P2
2022/12/12 00:01:31;;;;;;;22.50;10.70;;;;;;;-0.76;78.52;97364.69;5018936;28;20026;-92
2022/12/12 00:04:17;;;;;;;22.75;10.75;;;;;;;-0.98;78.90;97353.03;5002959;28;20054;-92
2022/12/12 00:06:46;;;;;;;23.02;11.85;;;;;;;-0.91;79.15;97370.31;5008059;28;20042;-92
2022/12/12 00:09:29;;;;;;;20.63;10.45;;;;;;;-1.00;78.55;97347.25;5005600;28;20058;-92
2022/12/12 00:11:57;;;;;;;24.15;11.68;;;;;;;-0.98;78.19;97366.72;5007053;28;20172;-92
2022/12/12 00:14:23;;;;;;;23.52;10.05;;;;;;;-0.96;78.69;97367.41;5000828;28;20034;-92
2022/12/12 00:16:48;;;;;;;17.15;9.68;;;;;;;-0.79;78.46;97367.53;4997920;28;20562;-92
2022/12/12 00:19:14;;;;;;;20.38;10.13;;;;;;;-0.82;78.72;97354.03;5013986;28;20033;-91
2022/12/12 00:21:45;;;;;;;20.30;10.32;;;;;;;-0.85;78.82;97354.28;5008454;28;20034;-89
2022/12/12 00:24:13;;;;;;;19.50;9.63;;;;;;;-0.55;77.84;97386.59;4985243;28;20022;-91
2022/12/12 00:26:40;;;;;;;22.75;10.25;;;;;;;-0.72;77.03;97347.97;4992119;28;20033;-91
2022/12/12 00:29:09;;;;;;;20.90;10.23;;;;;;;-0.71;77.14;97365.06;4988076;28;20029;-92
2022/12/12 00:31:36;;;;;;;20.20;8.98;;;;;;;-0.72;77.23;97369.41;5005630;28;20038;-92
2022/12/12 00:34:02;;;;;;;18.88;10.02;;;;;;;-0.67;77.52;97356.88;5003987;28;21007;-92
2022/12/12 00:36:37;;;;;;;20.10;10.50;;;;;;;-0.68;77.09;97369.91;5014017;28;20057;-92
2022/12/12 00:39:05;;;;;;;19.17;9.93;;;;;;;-0.65;77.26;97367.06;4978445;28;20038;-92
2022/12/12 00:41:36;;;;;;;21.73;9.23;;;;;;;-0.76;77.48;97365.50;5028761;28;20057;-92
2022/12/12 00:44:10;;;;;;;20.13;9.38;;;;;;;-0.70;77.48;97376.97;5023799;28;20037;-92
2022/12/12 00:47:01;;;;;;;19.17;9.80;;;;;;;-0.78;77.00;97387.19;5009845;28;20481;-92
2022/12/12 00:49:30;;;;;;;24.88;11.63;;;;;;;-0.87;77.41;97381.97;4993357;28;20495;-91
2022/12/12 00:52:01;;;;;;;18.50;9.85;;;;;;;-0.86;77.81;97362.97;5028752;28;20496;-91
2022/12/12 00:54:29;;;;;;;17.02;9.20;;;;;;;-0.85;77.51;97374.88;5031769;28;20029;-92
2022/12/12 00:57:04;;;;;;;19.05;9.00;;;;;;;-0.89;77.22;97368.44;5027103;28;20033;-92
2022/12/12 00:59:59;;;;;;;18.20;8.90;;;;;;;-0.62;77.09;97405.38;5022377;28;20053;-91
2022/12/12 01:02:27;;;;;;;21.25;10.90;;;;;;;-0.70;76.90;97369.25;5020127;28;20144;-92
2022/12/12 01:05:00;;;;;;;22.80;9.90;;;;;;;-0.68;77.13;97359.59;5035955;28;20035;-91
2022/12/12 01:07:35;;;;;;;17.27;9.00;;;;;;;-0.58;76.77;97375.81;5009528;28;20037;-91
2022/12/12 01:10:05;;;;;;;18.15;9.27;;;;;;;-0.53;76.46;97383.91;5009148;28;20511;-91
2022/12/12 01:12:31;;;;;;;17.88;10.02;;;;;;;-0.51;76.14;97387.13;4998555;28;20030;-92
2022/12/12 01:14:57;;;;;;;17.92;9.10;;;;;;;-0.61;76.73;97371.75;5018542;28;20474;-92
2022/12/12 01:17:36;;;;;;;18.42;9.50;;;;;;;-0.53;76.73;97375.38;5035411;28;20037;-91
2022/12/12 01:20:06;;;;;;;19.05;9.13;;;;;;;-0.71;76.98;97375.38;5008373;28;20026;-91
2022/12/12 01:22:42;;;;;;;18.38;9.30;;;;;;;-0.78;77.65;97400.06;5027557;28;20026;-91
2022/12/12 01:25:13;;;;;;;21.30;9.68;;;;;;;-0.63;77.73;97402.00;5017357;28;20053;-91
2022/12/12 01:27:42;;;;;;;21.30;10.75;;;;;;;-0.71;77.53;97395.97;5007163;28;20030;-90
2022/12/12 01:30:13;;;;;;;20.73;9.18;;;;;;;-0.68;78.40;97408.53;5015329;28;20068;-92
2022/12/12 01:32:39;;;;;;;19.70;10.18;;;;;;;-0.55;78.42;97414.13;5005477;28;20029;-91
2022/12/12 01:35:10;;;;;;;23.40;10.27;;;;;;;-0.47;77.81;97414.22;5001676;28;20149;-91
2022/12/12 01:37:43;;;;;;;21.20;9.88;;;;;;;-0.52;76.74;97411.28;5016884;28;20032;-91
2022/12/12 01:40:23;;;;;;;20.75;9.88;;;;;;;-0.49;76.82;97417.91;5014722;28;20477;-92
2022/12/12 01:42:52;;;;;;;23.85;10.48;;;;;;;-0.68;77.09;97400.81;5010405;28;20038;-91
2022/12/12 01:46:09;;;;;;;24.50;11.07;;;;;;;-0.57;77.25;97419.44;5014714;28;20026;-91
2022/12/12 01:48:44;;;;;;;21.05;10.50;;;;;;;-0.62;76.85;97390.72;5017735;28;20025;-91
2022/12/12 01:51:19;;;;;;;23.40;10.45;;;;;;;-0.61;76.51;97401.84;5007786;28;20045;-93
2022/12/12 01:54:06;;;;;;;24.70;12.38;;;;;;;-0.81;77.07;97396.03;5001981;28;20041;-92
2022/12/12 01:56:39;;;;;;;22.67;11.98;;;;;;;-0.78;77.60;97428.38;5018575;28;20037;-93
2022/12/12 01:59:20;;;;;;;24.52;12.73;;;;;;;-0.91;79.67;97416.66;5011077;28;20053;-91
2022/12/12 02:01:50;;;;;;;22.58;11.13;;;;;;;-0.99;79.89;97408.06;5029531;28;20032;-93
2022/12/12 02:04:22;;;;;;;24.13;11.52;;;;;;;-1.02;81.79;97406.59;5015895;28;20034;-91
2022/12/12 02:06:55;;;;;;;24.27;11.90;;;;;;;-1.08;82.58;97404.56;5016425;28;20393;-92
2022/12/12 02:09:23;;;;;;;23.77;11.88;;;;;;;-1.02;82.36;97392.88;5008696;28;20088;-92
2022/12/12 02:12:08;;;;;;;23.73;12.48;;;;;;;-0.91;79.95;97426.16;4994541;28;20026;-93
2022/12/12 02:14:56;;;;;;;22.20;11.68;;;;;;;-0.97;81.18;97427.53;5019420;28;20040;-92
2022/12/12 02:18:04;;;;;;;25.02;11.32;;;;;;;-0.96;80.34;97413.72;5006854;28;20424;-91
2022/12/12 02:20:48;;;;;;;25.20;12.60;;;;;;;-0.95;80.12;97435.94;5033589;28;20033;-92
2022/12/12 02:23:42;;;;;;;23.85;12.73;;;;;;;-0.94;80.13;97440.13;5006636;28;20138;-91
2022/12/12 02:26:51;;;;;;;20.52;10.13;;;;;;;-1.00;80.13;97443.28;5020448;28;20088;-90
2022/12/12 02:29:53;;;;;;;22.30;10.77;;;;;;;-1.04;81.02;97435.97;5028465;28;20033;-91
2022/12/12 02:32:38;;;;;;;21.42;11.45;;;;;;;-0.78;80.85;97442.09;5021277;28;20041;-91
2022/12/12 02:35:43;;;;;;;23.70;11.23;;;;;;;-0.66;79.52;97437.53;5010923;28;20042;-92
2022/12/12 02:38:22;;;;;;;26.48;11.85;;;;;;;-0.57;79.61;97439.25;5020230;28;20046;-91
2022/12/12 02:41:14;;;;;;;24.67;11.07;;;;;;;-0.58;80.72;97438.44;4997290;28;20469;-91
2022/12/12 02:44:03;;;;;;;21.50;11.52;;;;;;;-0.50;81.04;97439.47;4995231;28;20032;-92
2022/12/12 02:46:38;;;;;;;22.23;11.13;;;;;;;-0.69;79.59;97441.22;5026649;28;20033;-92
2022/12/12 02:49:24;;;;;;;25.55;12.40;;;;;;;-0.84;80.70;97443.47;4996255;28;20037;-91
2022/12/12 02:51:56;;;;;;;23.08;11.50;;;;;;;-1.12;81.21;97439.28;4996211;28;20389;-92
2022/12/12 02:54:22;;;;;;;24.65;11.68;;;;;;;-1.28;81.40;97428.75;4996911;28;21014;-92
2022/12/12 02:56:59;;;;;;;21.48;10.25;;;;;;;-1.23;81.84;97444.59;4991187;28;20068;-92
2022/12/12 02:59:51;;;;;;;22.80;11.82;;;;;;;-1.16;82.46;97455.94;5013958;28;20037;-93
2022/12/12 03:02:36;;;;;;;24.92;12.15;;;;;;;-1.00;82.40;97458.72;5014519;28;20038;-93
2022/12/12 03:08:50;;;;;;;20.45;10.40;;;;;;;-1.53;83.23;97423.31;4996054;28;20116;-93
2022/12/12 03:11:46;;;;;;;22.70;11.60;;;;;;;-1.19;83.77;97458.81;4990582;28;20032;-90
2022/12/12 03:14:31;;;;;;;19.83;10.13;;;;;;;-1.02;82.98;97447.78;5003067;28;20470;-92
2022/12/12 03:17:32;;;;;;;21.42;10.70;;;;;;;-0.82;81.94;97464.72;5003100;28;20140;-92
2022/12/12 03:20:27;;;;;;;25.00;10.98;;;;;;;-0.69;81.48;97466.16;5003535;28;20022;-92
2022/12/12 03:23:14;;;;;;;21.88;10.80;;;;;;;-0.55;80.75;97468.22;5010385;28;20030;-93
2022/12/12 03:25:57;;;;;;;31.55;13.57;;;;;;;-0.62;79.72;97444.00;5012188;28;20437;-92
2022/12/12 03:28:44;;;;;;;22.33;12.80;;;;;;;-0.53;79.32;97458.63;5001180;28;20084;-92
2022/12/12 03:31:19;;;;;;;22.30;11.00;;;;;;;-0.52;79.43;97454.28;5013161;28;20128;-92
2022/12/12 03:33:55;;;;;;;22.35;11.35;;;;;;;-0.77;79.98;97443.72;5009641;28;20026;-92
2022/12/12 03:36:29;;;;;;;23.95;12.52;;;;;;;-0.72;80.39;97441.53;4996198;28;20034;-93
2022/12/12 03:39:10;;;;;;;24.42;10.98;;;;;;;-0.85;80.32;97420.44;4984047;28;20037;-92
2022/12/12 03:41:56;;;;;;;29.13;12.48;;;;;;;-0.60;79.85;97448.09;5026249;28;20072;-93
2022/12/12 03:44:35;;;;;;;20.02;10.63;;;;;;;-0.74;79.41;97422.00;5006818;28;20037;-92
2022/12/12 03:47:12;;;;;;;;;;;;;;;-0.60;79.74;97450.66;5014750;28;20033;-92
2022/12/12 03:50:06;;;;;;;26.52;12.45;;;;;;;-0.55;79.62;97447.63;5007785;28;20011;-91
2022/12/12 03:52:49;;;;;;;25.90;12.40;;;;;;;-0.49;78.87;97457.34;5015205;28;20036;-91
2022/12/12 03:55:51;;;;;;;26.48;12.90;;;;;;;-0.56;78.70;97458.88;5010581;28;20504;-93
2022/12/12 03:58:32;;;;;;;23.55;12.05;;;;;;;-0.71;78.97;97450.03;4999190;28;20656;-92
2022/12/12 04:01:06;;;;;;;25.55;11.90;;;;;;;-0.68;79.41;97447.16;5030715;28;20495;-92
2022/12/12 04:04:04;;;;;;;23.58;12.35;;;;;;;-0.70;79.01;97454.25;5010392;28;20395;-92
2022/12/12 04:06:47;;;;;;;25.38;11.70;;;;;;;-0.76;79.60;97449.66;5006277;28;20116;-91
2022/12/12 04:15:30;;;;;;;28.88;13.75;;;;;;;-0.69;80.10;97459.25;5012975;28;19917;-92
2022/12/12 04:18:17;;;;;;;26.90;12.75;;;;;;;-0.76;79.70;97444.50;4996511;28;20148;-92
2022/12/12 04:24:10;;;;;;;26.50;12.63;;;;;;;-0.77;79.48;97459.16;5016225;28;20120;-92
2022/12/12 04:26:47;;;;;;;22.90;12.45;;;;;;;-0.66;79.58;97473.56;5013756;28;20025;-92
2022/12/12 04:29:45;;;;;;;25.17;11.75;;;;;;;-0.87;79.61;97448.91;5017978;28;20584;-92
2022/12/12 04:32:51;;;;;;;26.30;12.40;;;;;;;-0.69;79.54;97468.72;4998800;28;20030;-92
2022/12/12 04:35:31;;;;;;;23.73;12.13;;;;;;;-0.68;79.99;97467.78;5014949;28;20025;-92
2022/12/12 04:38:08;;;;;;;24.63;11.52;;;;;;;-0.94;79.58;97453.00;5036064;28;20037;-92
2022/12/12 04:41:03;;;;;;;21.23;11.18;;;;;;;-0.86;80.49;97471.09;5018772;28;20052;-92
2022/12/12 04:43:34;;;;;;;23.63;11.82;;;;;;;-0.76;80.75;97476.22;5017342;28;20060;-92
2022/12/12 04:46:11;;;;;;;25.33;11.10;;;;;;;-0.83;79.80;97475.19;5032243;28;20026;-93
2022/12/12 04:48:52;;;;;;;22.52;10.13;;;;;;;-0.76;80.04;97472.84;5025859;28;20025;-93
2022/12/12 04:51:27;;;;;;;19.80;10.88;;;;;;;-0.61;78.83;97472.19;5012179;28;20025;-93
2022/12/12 04:54:25;;;;;;;19.85;10.05;;;;;;;-0.53;78.96;97481.00;5017800;28;20041;-92
2022/12/12 04:56:58;;;;;;;18.48;10.27;;;;;;;-0.51;77.53;97485.03;5018012;28;20029;-93
2022/12/12 04:59:25;;;;;;;16.38;8.98;;;;;;;-0.70;77.17;97477.41;5035730;28;20029;-93
2022/12/12 05:02:29;;;;;;;14.27;8.27;;;;;;;-0.81;78.01;97474.06;5018820;28;20025;-93
2022/12/12 05:05:13;;;;;;;15.82;8.88;;;;;;;-0.61;78.04;97487.66;4991971;28;20137;-93
2022/12/12 05:07:47;;;;;;;17.02;9.10;;;;;;;-0.78;77.44;97469.56;5028411;28;20026;-93
2022/12/12 05:10:31;;;;;;;16.27;9.23;;;;;;;-0.64;77.76;97489.72;5028503;28;20045;-92
2022/12/12 05:13:02;;;;;;;17.25;8.65;;;;;;;-0.59;77.09;97500.41;5006835;28;20095;-93
2022/12/12 05:15:30;;;;;;;;;;;;;;;-0.60;76.75;97491.03;4986916;28;20080;-93
2022/12/12 05:18:10;;;;;;;18.52;8.98;;;;;;;-0.66;76.38;97491.59;5015905;28;20268;-92
2022/12/12 05:20:42;;;;;;;20.05;9.68;;;;;;;-0.85;75.94;97493.31;5023965;28;20018;-92
2022/12/12 05:23:16;;;;;;;20.48;9.57;;;;;;;-1.17;76.11;97487.78;5029772;28;20446;-92
2022/12/12 05:25:44;;;;;;;15.43;8.07;;;;;;;-1.14;75.90;97487.47;5012136;28;20054;-93
2022/12/12 05:28:13;;;;;;;17.15;8.38;;;;;;;-1.31;75.95;97481.31;4998226;28;20056;-92
2022/12/12 05:30:40;;;;;;;14.68;8.35;;;;;;;-1.25;76.14;97503.13;5022374;28;20469;-93
2022/12/12 05:33:06;;;;;;;17.63;8.43;;;;;;;-1.43;75.69;97483.25;5034265;28;20473;-93
2022/12/12 05:35:52;;;;;;;14.82;7.63;;;;;;;-1.37;75.58;97492.97;5030299;28;20079;-93
2022/12/12 05:38:17;;;;;;;16.92;8.30;;;;;;;-1.59;75.62;97493.28;4996053;28;20041;-92
2022/12/12 05:40:48;;;;;;;16.75;8.77;;;;;;;-1.56;76.38;97518.75;5016675;28;20116;-93
2022/12/12 05:43:14;;;;;;;17.98;8.85;;;;;;;-1.85;76.43;97492.25;5029603;28;20095;-92
2022/12/12 05:45:39;;;;;;;15.88;8.38;;;;;;;-1.89;76.97;97501.97;5005200;28;20030;-93
2022/12/12 05:48:08;;;;;;;17.83;8.57;;;;;;;-2.04;76.93;97501.59;5034529;28;20039;-93
2022/12/12 05:50:38;;;;;;;14.77;8.45;;;;;;;-2.01;77.44;97498.75;5017256;28;20033;-92
2022/12/12 05:53:12;;;;;;;;;;;;;;;-1.89;77.10;97518.22;5032648;28;20025;-91
2022/12/12 05:55:52;;;;;;;15.60;8.20;;;;;;;-2.05;77.31;97491.44;5014260;28;19908;-92
2022/12/12 05:58:19;;;;;;;16.88;8.48;;;;;;;-1.84;77.18;97514.44;5016767;28;20068;-92
2022/12/12 06:00:54;;;;;;;15.30;7.90;;;;;;;-1.97;76.89;97484.69;5007354;28;20651;-92
2022/12/12 06:03:20;;;;;;;14.80;7.57;;;;;;;-1.86;76.55;97506.84;4995246;28;20037;-92
2022/12/12 06:05:50;;;;;;;15.40;8.02;;;;;;;-1.88;76.44;97499.28;5020526;28;20049;-92
2022/12/12 06:08:23;;;;;;;15.80;7.30;;;;;;;-1.88;76.26;97489.00;4994947;28;20477;-93
2022/12/12 06:10:48;;;;;;;14.63;8.47;;;;;;;-1.80;75.93;97502.91;5019065;28;20072;-93
2022/12/12 06:13:16;;;;;;;14.40;8.02;;;;;;;-1.73;76.17;97524.59;5015092;28;20340;-93
2022/12/12 06:15:59;;;;;;;18.05;8.30;;;;;;;-2.06;76.88;97506.03;5011805;28;20087;-92
2022/12/12 06:18:27;;;;;;;17.80;8.95;;;;;;;-2.06;77.31;97506.03;5016590;28;20033;-92
2022/12/12 06:21:06;;;;;;;19.13;9.43;;;;;;;-1.91;77.33;97525.25;5034441;28;20692;-93
2022/12/12 06:23:46;;;;;;;18.00;9.20;;;;;;;-2.04;77.25;97518.75;5000049;28;20040;-92
2022/12/12 06:26:23;;;;;;;31.40;14.75;;;;;;;-2.07;77.59;97529.31;5000640;28;20049;-92
2022/12/12 06:29:11;;;;;;;21.27;10.50;;;;;;;-2.15;77.93;97524.84;5019101;28;20112;-92
2022/12/12 06:31:39;;;;;;;16.70;8.40;;;;;;;-2.09;77.81;97537.16;5028958;28;20137;-92
2022/12/12 06:34:05;;;;;;;19.77;12.38;;;;;;;-2.08;77.79;97541.34;5033081;28;20033;-92
2022/12/12 06:36:35;;;;;;;20.20;12.98;;;;;;;-2.13;77.65;97543.50;5020110;28;20033;-91
2022/12/12 06:39:01;;;;;;;16.52;9.07;;;;;;;-2.36;77.24;97526.69;5005498;28;20029;-93
2022/12/12 06:41:38;;;;;;;17.83;8.57;;;;;;;-2.59;78.38;97520.97;5033642;28;20052;-92
2022/12/12 06:44:07;;;;;;;19.60;8.65;;;;;;;-2.42;78.69;97551.94;5034672;28;20026;-93
2022/12/12 06:46:35;;;;;;;15.70;8.70;;;;;;;-2.45;78.86;97552.22;5028811;28;20087;-92
2022/12/12 06:49:08;;;;;;;23.88;9.40;;;;;;;-2.49;79.25;97544.91;5000432;28;20032;-92
2022/12/12 06:51:48;;;;;;;24.50;10.73;;;;;;;-2.49;79.21;97550.84;5013057;28;20101;-92
2022/12/12 06:54:17;;;;;;;18.80;9.38;;;;;;;-2.42;79.02;97567.34;4999412;28;20057;-94
2022/12/12 06:56:51;;;;;;;20.42;9.35;;;;;;;-2.46;78.95;97547.19;4998922;28;20033;-92
2022/12/12 06:59:16;;;;;;;21.45;10.75;;;;;;;-2.49;78.57;97556.00;4997593;28;20092;-92
2022/12/12 07:01:47;;;;;;;24.55;9.18;;;;;;;-2.31;78.15;97548.47;5015343;28;20033;-92
2022/12/12 07:04:15;;;;;;;18.43;9.13;;;;;;;-2.31;77.78;97542.53;5016481;28;20029;-91
2022/12/12 07:06:43;;;;;;;21.02;9.73;;;;;;;-2.12;77.76;97560.53;4998940;28;20642;-91
2022/12/12 07:09:19;;;;;;;17.30;9.30;;;;;;;-2.17;77.74;97529.28;5032999;28;20056;-91
2022/12/12 07:11:47;;;;;;;21.48;9.88;;;;;;;-1.92;77.88;97553.66;5009796;28;20037;-91
2022/12/12 07:14:26;;;;;;;;;;;;;;;;;;;;;
2022/12/12 07:16:52;;;;;;;18.33;8.60;;;;;;;-1.77;76.91;97552.31;5004926;28;20044;-91
2022/12/12 07:19:24;;;;;;;20.73;9.98;;;;;;;-1.68;76.91;97566.09;4997625;28;20034;-91
2022/12/12 07:21:53;;;;;;;14.80;8.27;;;;;;;-1.58;76.78;97576.41;5012101;28;20037;-91
2022/12/12 07:24:19;;;;;;;17.08;9.55;;;;;;;-1.46;76.59;97576.13;4997193;28;20053;-91
2022/12/12 07:26:47;;;;;;;18.55;9.85;;;;;;;-1.50;76.38;97574.78;5007160;28;20544;-90
2022/12/12 07:29:14;;;;;;;18.63;9.93;;;;;;;-1.59;75.95;97570.44;4992753;28;20042;-91
2022/12/12 07:31:40;;;;;;;20.13;10.30;;;;;;;-1.61;76.02;97572.34;5003645;28;20121;-91
2022/12/12 07:34:06;;;;;;;22.77;10.35;;;;;;;-1.58;76.00;97572.06;5004848;28;20093;-91
2022/12/12 07:36:41;;;;;;;22.17;10.95;;;;;;;-1.49;75.58;97566.13;5010198;28;20030;-92
2022/12/12 07:39:07;;;;;;;16.70;9.63;;;;;;;-1.45;74.93;97592.34;4988015;28;20084;-92
2022/12/12 07:41:41;;;;;;;18.48;8.95;;;;;;;-1.74;75.00;97574.34;4991610;28;20057;-92
2022/12/12 07:44:07;;;;;;;17.80;9.05;;;;;;;-1.57;74.95;97589.09;5020153;28;20034;-92
2022/12/12 07:46:44;;;;;;;16.90;8.77;;;;;;;-1.56;74.81;97595.91;5032434;28;20033;-93
2022/12/12 07:49:09;;;;;;;19.30;8.98;;;;;;;-1.58;75.30;97587.50;5032555;28;20539;-93
2022/12/12 07:51:40;;;;;;;18.02;9.02;;;;;;;-1.43;75.18;97604.16;5031585;28;20044;-92
2022/12/12 07:54:06;;;;;;;19.05;9.43;;;;;;;-1.41;75.08;97593.72;4995113;28;20029;-93
2022/12/12 07:56:42;;;;;;;17.95;8.93;;;;;;;-1.43;74.64;97600.78;5022112;28;20116;-92
2022/12/12 07:59:13;;;;;;;18.50;9.27;;;;;;;-1.47;75.04;97591.69;5020064;28;20497;-92
2022/12/12 08:01:43;;;;;;;21.33;9.15;;;;;;;-1.47;74.10;97579.63;4997512;28;20091;-92
2022/12/12 08:04:11;;;;;;;18.45;8.68;;;;;;;-1.50;73.72;97582.50;5010666;28;20053;-91
2022/12/12 08:06:42;;;;;;;18.88;10.25;;;;;;;-1.39;74.06;97592.63;5016920;28;20055;-92
2022/12/12 08:09:07;;;;;;;18.35;9.43;;;;;;;-1.27;74.18;97610.50;5020640;28;20025;-92
2022/12/12 08:11:40;;;;;;;17.17;9.00;;;;;;;-1.18;74.25;97599.38;4989188;28;20172;-92
2022/12/12 08:14:08;;;;;;;16.55;8.82;;;;;;;-1.15;73.99;97589.59;4993655;28;20394;-92
2022/12/12 08:16:36;;;;;;;16.77;8.63;;;;;;;-1.29;72.90;97587.47;5000602;28;20051;-92
2022/12/12 08:19:07;;;;;;;17.00;8.23;;;;;;;-1.18;72.90;97594.25;5018486;28;20034;-92
2022/12/12 08:21:33;;;;;;;15.80;7.85;;;;;;;-1.01;72.29;97608.16;4985495;28;20045;-92
2022/12/12 08:24:05;;;;;;;17.27;8.65;;;;;;;-1.10;71.70;97591.78;5008641;28;20030;-92
2022/12/12 08:26:31;;;;;;;18.05;8.75;;;;;;;-1.02;71.56;97579.03;5009555;28;20034;-91
2022/12/12 08:28:59;;;;;;;16.30;8.95;;;;;;;-0.79;71.11;97609.59;5012797;28;20658;-91
2022/12/12 08:31:38;;;;;;;;;;;;;;;;;;;;;
2022/12/12 08:34:11;;;;;;;18.88;9.95;;;;;;;-1.12;72.05;97614.28;5030399;28;20388;-92
2022/12/12 08:36:37;;;;;;;21.05;10.30;;;;;;;-0.96;71.71;97601.66;5029003;28;20039;-91
2022/12/12 08:39:14;;;;;;;19.67;9.98;;;;;;;-0.91;71.12;97594.28;5026065;28;20026;-91
2022/12/12 08:41:50;;;;;;;18.92;9.15;;;;;;;-1.03;70.62;97613.44;4983502;28;20033;-91
2022/12/12 08:44:20;;;;;;;17.20;9.63;;;;;;;-1.03;71.04;97615.19;5023635;28;20038;-91
2022/12/12 08:46:49;;;;;;;22.00;10.63;;;;;;;-0.91;70.85;97627.75;5026935;28;20400;-91
2022/12/12 08:49:22;;;;;;;19.83;9.95;;;;;;;-0.97;71.00;97602.56;5028178;28;20029;-91
2022/12/12 08:51:50;;;;;;;17.85;9.35;;;;;;;-0.87;71.18;97595.66;5002559;28;20035;-92
2022/12/12 08:54:28;;;;;;;;;;;;;;;;;;;;;
2022/12/12 08:57:05;;;;;;;20.88;10.30;;;;;;;-0.73;70.30;97603.88;5023798;28;20092;-91
2022/12/12 08:59:30;;;;;;;18.90;9.55;;;;;;;-0.74;71.17;97615.94;5021483;28;20060;-91
2022/12/12 09:02:00;;;;;;;22.40;10.02;;;;;;;-0.82;71.14;97611.50;5012279;28;20033;-90
2022/12/12 09:04:26;;;;;;;26.15;12.93;;;;;;;-0.85;71.92;97611.75;5004984;28;20061;-90
2022/12/12 09:06:52;;;;;;;18.50;10.77;;;;;;;-0.70;71.18;97627.59;4998512;28;20121;-90
2022/12/12 09:09:25;;;;;;;36.95;17.92;;;;;;;-0.48;70.27;97639.31;5030925;28;20033;-90
2022/12/12 09:11:50;;;;;;;28.13;15.25;;;;;;;-0.70;70.43;97612.13;5033644;28;20414;-91
2022/12/12 09:14:18;;;;;;;31.95;16.98;;;;;;;-0.37;69.69;97646.03;5033293;28;20026;-91
2022/12/12 09:16:48;;;;;;;21.23;9.43;;;;;;;-0.33;69.61;97663.66;5016517;28;20033;-92
2022/12/12 09:19:18;;;;;;;191.02;107.55;;;;;;;-0.50;70.24;97650.72;4980153;28;20034;-91
2022/12/12 09:21:46;;;;;;;92.40;53.92;;;;;;;-0.60;69.74;97641.25;5014556;28;20120;-91
2022/12/12 09:24:14;;;;;;;160.80;64.35;;;;;;;-0.46;70.30;97650.28;5014856;28;20060;-91
2022/12/12 09:26:44;;;;;;;31.95;13.10;;;;;;;-0.50;70.16;97641.22;5030311;28;20025;-91
2022/12/12 09:29:45;;;;;;;19.55;9.63;;;;;;;-0.45;70.26;97659.63;5027969;28;20046;-91
2022/12/12 09:32:13;;;;;;;17.48;9.52;;;;;;;-0.71;70.62;97638.84;5027148;28;20033;-90
2022/12/12 09:34:46;;;;;;;145.30;61.30;;;;;;;-0.38;70.23;97665.84;5002388;28;20041;-90
2022/12/12 09:37:14;;;;;;;173.65;74.05;;;;;;;-0.23;69.84;97657.66;5033179;28;20029;-90
2022/12/12 09:39:44;;;;;;;59.80;27.15;;;;;;;-0.05;69.62;97655.97;5000651;28;20038;-91
2022/12/12 09:42:32;;;;;;;19.45;10.15;;;;;;;-0.09;68.96;97659.78;5019723;28;20030;-91
2022/12/12 09:45:12;;;;;;;22.85;10.50;;;;;;;-0.13;69.16;97669.53;5012660;28;20026;-91
2022/12/12 09:47:45;;;;;;;23.05;11.18;;;;;;;-0.10;68.74;97664.13;5011495;28;20041;-91
2022/12/12 09:50:33;;;;;;;20.35;10.73;;;;;;;-0.14;69.82;97669.69;5011244;28;20449;-91
2022/12/12 09:53:08;;;;;;;58.15;24.13;;;;;;;-0.21;70.43;97666.06;5028692;28;20025;-91
2022/12/12 09:55:58;;;;;;;20.55;10.95;;;;;;;-0.13;70.06;97666.16;5002788;28;20056;-90
2022/12/12 09:58:50;;;;;;;25.27;11.85;;;;;;;-0.14;70.44;97665.34;5022397;28;20033;-91
2022/12/12 10:01:47;;;;;;;19.98;11.35;;;;;;;0.11;70.70;97665.63;5006424;28;20021;-91
2022/12/12 10:04:43;;;;;;;28.17;13.75;;;;;;;0.03;70.33;97663.78;5023548;28;20387;-91
2022/12/12 10:07:11;;;;;;;26.05;11.93;;;;;;;0.19;70.86;97673.47;5022418;28;20137;-90
2022/12/12 10:10:24;;;;;;;22.38;11.13;;;;;;;0.35;71.09;97672.81;5018797;28;20116;-91
2022/12/12 10:13:00;;;;;;;23.13;11.95;;;;;;;0.34;71.19;97669.44;5011754;28;20053;-92
2022/12/12 10:15:42;;;;;;;22.02;12.02;;;;;;;0.27;71.29;97660.66;5002240;28;20037;-91
2022/12/12 10:19:26;;;;;;;24.10;11.23;;;;;;;0.25;71.60;97652.25;5013199;28;20040;-91
2022/12/12 10:22:05;;;;;;;20.48;10.23;;;;;;;0.40;70.29;97655.94;4972047;28;20358;-91
2022/12/12 10:24:48;;;;;;;21.38;10.73;;;;;;;0.57;71.11;97675.00;5031035;28;20468;-92
2022/12/12 10:27:14;;;;;;;20.77;10.73;;;;;;;0.49;70.10;97667.19;4997256;28;20397;-92
2022/12/12 10:29:47;;;;;;;17.25;9.43;;;;;;;0.19;70.52;97668.31;5014318;28;20049;-93
2022/12/12 10:32:22;;;;;;;20.52;10.95;;;;;;;0.43;70.19;97671.16;5023318;28;20104;-92
2022/12/12 10:34:57;;;;;;;20.42;10.93;;;;;;;0.28;69.85;97676.94;4995867;28;20516;-92
2022/12/12 10:38:10;;;;;;;18.30;9.73;;;;;;;-0.28;72.00;97669.22;5028772;28;20493;-92
2022/12/12 10:40:55;;;;;;;14.23;7.60;;;;;;;-0.98;73.86;97664.50;5007780;28;20030;-93
2022/12/12 10:43:44;;;;;;;24.40;12.82;;;;;;;-0.49;74.36;97675.50;4997374;28;20034;-92
2022/12/12 10:46:51;;;;;;;31.38;14.32;;;;;;;-0.05;72.75;97661.13;5007805;28;20053;-93
2022/12/12 10:49:25;;;;;;;22.15;11.13;;;;;;;-0.06;71.37;97659.47;5003519;28;20045;-92
2022/12/12 10:52:00;;;;;;;20.23;11.13;;;;;;;-0.38;72.49;97665.84;5021423;28;20045;-92
2022/12/12 10:54:33;;;;;;;24.55;12.27;;;;;;;-0.32;72.41;97667.84;5001144;28;20036;-92
2022/12/12 10:57:27;;;;;;;23.40;11.95;;;;;;;-0.40;73.24;97662.63;5006561;28;20041;-92
2022/12/12 11:00:31;;;;;;;18.40;8.93;;;;;;;-0.36;71.57;97656.22;5017095;28;20037;-91
2022/12/12 11:03:23;;;;;;;25.15;11.68;;;;;;;-0.15;71.49;97655.19;4995832;28;20622;-91
2022/12/12 11:05:50;;;;;;;20.13;10.48;;;;;;;-0.19;71.31;97643.53;5021848;28;20104;-91
2022/12/12 11:08:35;;;;;;;22.25;10.93;;;;;;;0.04;71.42;97660.25;5010629;28;20033;-92
2022/12/12 11:11:19;;;;;;;20.63;11.45;;;;;;;0.04;70.65;97639.63;5014529;28;20413;-92
2022/12/12 11:13:56;;;;;;;22.20;12.48;;;;;;;0.53;71.12;97663.31;5009538;28;20034;-92
2022/12/12 11:16:29;;;;;;;21.27;11.02;;;;;;;0.70;69.81;97641.88;4978052;28;20041;-92
2022/12/12 11:19:21;;;;;;;20.80;10.57;;;;;;;0.79;69.02;97661.66;4995206;28;20589;-91
2022/12/12 11:21:50;;;;;;;19.67;9.98;;;;;;;0.70;68.80;97657.34;5031783;28;20072;-91
2022/12/12 11:24:31;;;;;;;19.05;9.70;;;;;;;0.71;69.21;97637.50;5011529;28;20030;-91
2022/12/12 11:27:06;;;;;;;31.48;14.65;;;;;;;1.05;68.89;97650.53;5029095;28;20037;-92
2022/12/12 11:29:48;;;;;;;22.02;12.05;;;;;;;1.14;67.70;97664.31;5010718;28;20069;-92
2022/12/12 11:32:23;;;;;;;21.00;10.35;;;;;;;0.83;67.02;97661.34;4995502;28;20512;-91
2022/12/12 11:35:00;;;;;;;18.60;10.20;;;;;;;0.68;67.27;97641.22;5009972;28;20860;-90
2022/12/12 11:37:58;;;;;;;21.85;11.80;;;;;;;0.85;68.19;97654.28;5031529;28;20033;-90
2022/12/12 11:40:28;;;;;;;25.45;12.93;;;;;;;0.82;67.93;97649.38;5012570;28;20634;-91
2022/12/12 11:43:30;;;;;;;18.85;10.40;;;;;;;0.45;67.61;97647.78;5031251;28;20033;-90
2022/12/12 11:46:14;;;;;;;;;;;;;;;0.63;69.54;97658.09;5012986;28;20405;-92
2022/12/12 11:48:59;;;;;;;33.75;14.30;;;;;;;0.72;68.53;97649.47;5009068;28;19913;-91
2022/12/12 11:51:44;;;;;;;19.48;11.13;;;;;;;0.78;68.21;97644.53;5022822;28;20053;-90
2022/12/12 11:54:29;;;;;;;25.95;12.98;;;;;;;0.91;69.23;97646.72;5006081;28;20034;-90
2022/12/12 11:57:13;;;;;;;21.20;11.23;;;;;;;0.87;68.12;97636.84;5024812;28;20041;-91
2022/12/12 11:59:58;;;;;;;19.83;11.13;;;;;;;0.92;68.92;97643.19;4996113;28;20033;-91
2022/12/12 12:03:19;;;;;;;20.65;10.10;;;;;;;0.89;70.32;97640.09;5015717;28;20057;-90
2022/12/12 12:06:10;;;;;;;19.73;11.02;;;;;;;0.78;70.51;97638.53;5031048;28;20029;-91
2022/12/12 12:08:39;;;;;;;23.90;11.50;;;;;;;0.78;70.13;97633.38;5025958;28;20689;-91
2022/12/12 12:11:30;;;;;;;24.70;10.80;;;;;;;0.83;68.74;97640.69;5024746;28;20588;-92
2022/12/12 12:14:04;;;;;;;21.63;11.07;;;;;;;0.73;68.52;97651.91;5011434;28;20041;-91
2022/12/12 12:16:44;;;;;;;20.30;11.25;;;;;;;0.86;69.31;97641.19;4994768;28;20096;-91
2022/12/12 12:19:48;;;;;;;22.00;10.80;;;;;;;1.07;69.30;97643.44;5013205;28;20079;-91
2022/12/12 12:22:47;;;;;;;21.00;10.70;;;;;;;0.78;67.45;97643.69;5000608;28;20033;-91
2022/12/12 12:25:36;;;;;;;17.55;10.15;;;;;;;0.74;69.01;97637.22;5017111;28;20477;-91
2022/12/12 12:28:50;;;;;;;18.27;9.07;;;;;;;0.75;67.25;97647.41;5011190;28;20419;-91